sensor_id;sensor_type;location;lat;lon;timestamp;temperature;humidity
22738;DHT22;11536;50.860;4.286;2023-08-31T00:00:09;14.30;99.90
22738;DHT22;11536;50.860;4.286;2023-08-31T00:02:36;14.30;99.90
22738;DHT22;11536;50.860;4.286;2023-08-31T00:05:02;14.30;99.90
22738;DHT22;11536;50.860;4.286;2023-08-31T00:07:29;14.30;99.90
22738;DHT22;11536;50.860;4.286;2023-08-31T00:09:54;14.30;99.90
22738;DHT22;11536;50.860;4.286;2023-08-31T00:12:20;14.30;99.90
22738;DHT22;11536;50.860;4.286;2023-08-31T00:14:49;14.30;99.90
22738;DHT22;11536;50.860;4.286;2023-08-31T00:17:15;14.30;99.90
22738;DHT22;11536;50.860;4.286;2023-08-31T00:19:40;14.30;99.90
22738;DHT22;11536;50.860;4.286;2023-08-31T00:22:06;14.30;99.90
22738;DHT22;11536;50.860;4.286;2023-08-31T00:24:32;14.30;99.90
22738;DHT22;11536;50.860;4.286;2023-08-31T00:27:01;14.30;99.90
22738;DHT22;11536;50.860;4.286;2023-08-31T00:29:27;14.30;99.90
22738;DHT22;11536;50.860;4.286;2023-08-31T00:31:52;14.30;99.90
22738;DHT22;11536;50.860;4.286;2023-08-31T00:34:19;14.40;99.90
22738;DHT22;11536;50.860;4.286;2023-08-31T00:36:45;14.40;99.90
22738;DHT22;11536;50.860;4.286;2023-08-31T00:39:11;14.40;99.90
22738;DHT22;11536;50.860;4.286;2023-08-31T00:41:37;14.40;99.90
22738;DHT22;11536;50.860;4.286;2023-08-31T00:44:03;14.40;99.90
22738;DHT22;11536;50.860;4.286;2023-08-31T00:46:33;14.40;99.90
22738;DHT22;11536;50.860;4.286;2023-08-31T00:48:59;14.40;99.90
22738;DHT22;11536;50.860;4.286;2023-08-31T00:51:25;14.50;99.90
22738;DHT22;11536;50.860;4.286;2023-08-31T00:53:52;14.40;99.90
22738;DHT22;11536;50.860;4.286;2023-08-31T00:56:20;14.50;99.90
22738;DHT22;11536;50.860;4.286;2023-08-31T00:58:47;14.40;99.90
22738;DHT22;11536;50.860;4.286;2023-08-31T01:01:24;14.40;99.90
22738;DHT22;11536;50.860;4.286;2023-08-31T01:04:18;14.40;99.90
22738;DHT22;11536;50.860;4.286;2023-08-31T01:06:58;14.40;99.90
22738;DHT22;11536;50.860;4.286;2023-08-31T01:09:41;14.40;99.90
22738;DHT22;11536;50.860;4.286;2023-08-31T01:12:35;14.40;99.90
22738;DHT22;11536;50.860;4.286;2023-08-31T01:15:10;14.40;99.90
22738;DHT22;11536;50.860;4.286;2023-08-31T01:17:48;14.40;99.90
22738;DHT22;11536;50.860;4.286;2023-08-31T01:20:22;14.40;99.90
22738;DHT22;11536;50.860;4.286;2023-08-31T01:23:00;14.40;99.90
22738;DHT22;11536;50.860;4.286;2023-08-31T01:25:29;14.40;99.90
22738;DHT22;11536;50.860;4.286;2023-08-31T01:27:57;14.40;99.90
22738;DHT22;11536;50.860;4.286;2023-08-31T01:30:23;14.40;99.90
22738;DHT22;11536;50.860;4.286;2023-08-31T01:32:49;14.30;99.90
22738;DHT22;11536;50.860;4.286;2023-08-31T01:35:17;14.30;99.90
22738;DHT22;11536;50.860;4.286;2023-08-31T01:37:58;14.30;99.90
22738;DHT22;11536;50.860;4.286;2023-08-31T01:40:55;14.30;99.90
22738;DHT22;11536;50.860;4.286;2023-08-31T01:43:23;14.30;99.90
22738;DHT22;11536;50.860;4.286;2023-08-31T01:45:50;14.30;99.90
22738;DHT22;11536;50.860;4.286;2023-08-31T01:48:16;14.30;99.90
22738;DHT22;11536;50.860;4.286;2023-08-31T01:50:42;14.30;99.90
22738;DHT22;11536;50.860;4.286;2023-08-31T01:53:07;14.30;99.90
22738;DHT22;11536;50.860;4.286;2023-08-31T01:55:33;14.30;99.90
22738;DHT22;11536;50.860;4.286;2023-08-31T01:57:59;14.30;99.90
22738;DHT22;11536;50.860;4.286;2023-08-31T02:00:25;14.20;99.90
22738;DHT22;11536;50.860;4.286;2023-08-31T02:02:51;14.20;99.90
22738;DHT22;11536;50.860;4.286;2023-08-31T02:05:17;14.20;99.90
22738;DHT22;11536;50.860;4.286;2023-08-31T02:07:42;14.20;99.90
22738;DHT22;11536;50.860;4.286;2023-08-31T02:10:08;14.20;99.90
22738;DHT22;11536;50.860;4.286;2023-08-31T02:12:34;14.20;99.90
22738;DHT22;11536;50.860;4.286;2023-08-31T02:15:05;14.20;99.90
22738;DHT22;11536;50.860;4.286;2023-08-31T02:17:32;14.20;99.90
22738;DHT22;11536;50.860;4.286;2023-08-31T02:19:57;14.20;99.90
22738;DHT22;11536;50.860;4.286;2023-08-31T02:22:23;14.20;99.90
22738;DHT22;11536;50.860;4.286;2023-08-31T02:24:49;14.20;99.90
22738;DHT22;11536;50.860;4.286;2023-08-31T02:27:15;14.20;99.90
22738;DHT22;11536;50.860;4.286;2023-08-31T02:29:41;14.20;99.90
22738;DHT22;11536;50.860;4.286;2023-08-31T02:32:07;14.20;99.90
22738;DHT22;11536;50.860;4.286;2023-08-31T02:34:33;14.20;99.90
22738;DHT22;11536;50.860;4.286;2023-08-31T02:36:58;14.20;99.90
22738;DHT22;11536;50.860;4.286;2023-08-31T02:39:24;14.20;99.90
22738;DHT22;11536;50.860;4.286;2023-08-31T02:41:49;14.20;99.90
22738;DHT22;11536;50.860;4.286;2023-08-31T02:44:15;14.20;99.90
22738;DHT22;11536;50.860;4.286;2023-08-31T02:46:41;14.20;99.90
22738;DHT22;11536;50.860;4.286;2023-08-31T02:49:06;14.20;99.90
22738;DHT22;11536;50.860;4.286;2023-08-31T02:51:32;14.20;99.90
22738;DHT22;11536;50.860;4.286;2023-08-31T02:53:58;14.20;99.90
22738;DHT22;11536;50.860;4.286;2023-08-31T02:56:23;14.20;99.90
22738;DHT22;11536;50.860;4.286;2023-08-31T02:58:49;14.20;99.90
22738;DHT22;11536;50.860;4.286;2023-08-31T03:01:15;14.20;99.90
22738;DHT22;11536;50.860;4.286;2023-08-31T03:03:41;14.20;99.90
22738;DHT22;11536;50.860;4.286;2023-08-31T03:06:08;14.20;99.90
22738;DHT22;11536;50.860;4.286;2023-08-31T03:08:35;14.20;99.90
22738;DHT22;11536;50.860;4.286;2023-08-31T03:11:02;14.20;99.90
22738;DHT22;11536;50.860;4.286;2023-08-31T03:13:28;14.30;99.90
22738;DHT22;11536;50.860;4.286;2023-08-31T03:15:54;14.30;99.90
22738;DHT22;11536;50.860;4.286;2023-08-31T03:18:21;14.30;99.90
22738;DHT22;11536;50.860;4.286;2023-08-31T03:20:47;14.30;99.90
22738;DHT22;11536;50.860;4.286;2023-08-31T03:23:13;14.30;99.90
22738;DHT22;11536;50.860;4.286;2023-08-31T03:25:38;14.30;99.90
22738;DHT22;11536;50.860;4.286;2023-08-31T03:28:04;14.30;99.90
22738;DHT22;11536;50.860;4.286;2023-08-31T03:30:30;14.30;99.90
22738;DHT22;11536;50.860;4.286;2023-08-31T03:32:55;14.30;99.90
22738;DHT22;11536;50.860;4.286;2023-08-31T03:35:21;14.30;99.90
22738;DHT22;11536;50.860;4.286;2023-08-31T03:37:52;14.30;99.90
22738;DHT22;11536;50.860;4.286;2023-08-31T03:40:17;14.30;99.90
22738;DHT22;11536;50.860;4.286;2023-08-31T03:42:43;14.30;99.90
22738;DHT22;11536;50.860;4.286;2023-08-31T03:45:09;14.30;99.90
22738;DHT22;11536;50.860;4.286;2023-08-31T03:47:34;14.30;99.90
22738;DHT22;11536;50.860;4.286;2023-08-31T03:50:00;14.30;99.90
22738;DHT22;11536;50.860;4.286;2023-08-31T03:52:26;14.30;99.90
22738;DHT22;11536;50.860;4.286;2023-08-31T03:54:51;14.30;99.90
22738;DHT22;11536;50.860;4.286;2023-08-31T03:57:20;14.30;99.90
22738;DHT22;11536;50.860;4.286;2023-08-31T03:59:46;14.30;99.90
22738;DHT22;11536;50.860;4.286;2023-08-31T04:02:11;14.30;99.90
22738;DHT22;11536;50.860;4.286;2023-08-31T04:04:37;14.30;99.90
22738;DHT22;11536;50.860;4.286;2023-08-31T04:07:03;14.30;99.90
22738;DHT22;11536;50.860;4.286;2023-08-31T04:09:29;14.30;99.90
22738;DHT22;11536;50.860;4.286;2023-08-31T04:11:55;14.30;99.90
22738;DHT22;11536;50.860;4.286;2023-08-31T04:14:21;14.30;99.90
22738;DHT22;11536;50.860;4.286;2023-08-31T04:16:47;14.20;99.90
22738;DHT22;11536;50.860;4.286;2023-08-31T04:19:15;14.20;99.90
22738;DHT22;11536;50.860;4.286;2023-08-31T04:21:42;14.20;99.90
22738;DHT22;11536;50.860;4.286;2023-08-31T04:24:07;14.20;99.90
22738;DHT22;11536;50.860;4.286;2023-08-31T04:26:33;14.20;99.90
22738;DHT22;11536;50.860;4.286;2023-08-31T04:28:59;14.20;99.90
22738;DHT22;11536;50.860;4.286;2023-08-31T04:31:24;14.20;99.90
22738;DHT22;11536;50.860;4.286;2023-08-31T04:33:50;14.10;99.90
22738;DHT22;11536;50.860;4.286;2023-08-31T04:36:19;14.10;99.90
22738;DHT22;11536;50.860;4.286;2023-08-31T04:38:45;14.10;99.90
22738;DHT22;11536;50.860;4.286;2023-08-31T04:41:11;14.10;99.90
22738;DHT22;11536;50.860;4.286;2023-08-31T04:43:36;14.10;99.90
22738;DHT22;11536;50.860;4.286;2023-08-31T04:46:02;14.10;99.90
22738;DHT22;11536;50.860;4.286;2023-08-31T04:48:29;14.10;99.90
22738;DHT22;11536;50.860;4.286;2023-08-31T04:50:58;14.10;99.90
22738;DHT22;11536;50.860;4.286;2023-08-31T04:53:24;14.10;99.90
22738;DHT22;11536;50.860;4.286;2023-08-31T04:55:51;14.10;99.90
22738;DHT22;11536;50.860;4.286;2023-08-31T04:58:16;14.10;99.90
22738;DHT22;11536;50.860;4.286;2023-08-31T05:00:42;14.10;99.90
22738;DHT22;11536;50.860;4.286;2023-08-31T05:03:10;14.00;99.90
22738;DHT22;11536;50.860;4.286;2023-08-31T05:05:35;14.10;99.90
22738;DHT22;11536;50.860;4.286;2023-08-31T05:08:01;14.10;99.90
22738;DHT22;11536;50.860;4.286;2023-08-31T05:10:28;14.10;99.90
22738;DHT22;11536;50.860;4.286;2023-08-31T05:12:53;14.00;99.90
22738;DHT22;11536;50.860;4.286;2023-08-31T05:15:19;14.10;99.90
22738;DHT22;11536;50.860;4.286;2023-08-31T05:17:44;14.10;99.90
22738;DHT22;11536;50.860;4.286;2023-08-31T05:20:10;14.10;99.90
22738;DHT22;11536;50.860;4.286;2023-08-31T05:22:36;14.10;99.90
22738;DHT22;11536;50.860;4.286;2023-08-31T05:25:02;14.10;99.90
22738;DHT22;11536;50.860;4.286;2023-08-31T05:27:27;14.10;99.90
22738;DHT22;11536;50.860;4.286;2023-08-31T05:29:54;14.10;99.90
22738;DHT22;11536;50.860;4.286;2023-08-31T05:32:20;14.00;99.90
22738;DHT22;11536;50.860;4.286;2023-08-31T05:34:45;14.10;99.90
22738;DHT22;11536;50.860;4.286;2023-08-31T05:37:11;14.10;99.90
22738;DHT22;11536;50.860;4.286;2023-08-31T05:39:37;14.10;99.90
22738;DHT22;11536;50.860;4.286;2023-08-31T05:42:03;14.10;99.90
22738;DHT22;11536;50.860;4.286;2023-08-31T05:44:28;14.10;99.90
22738;DHT22;11536;50.860;4.286;2023-08-31T05:46:54;14.10;99.90
22738;DHT22;11536;50.860;4.286;2023-08-31T05:49:19;14.10;99.90
22738;DHT22;11536;50.860;4.286;2023-08-31T05:51:45;14.10;99.90
22738;DHT22;11536;50.860;4.286;2023-08-31T05:54:11;14.10;99.90
22738;DHT22;11536;50.860;4.286;2023-08-31T05:56:38;14.10;99.90
22738;DHT22;11536;50.860;4.286;2023-08-31T05:59:05;14.10;99.90
22738;DHT22;11536;50.860;4.286;2023-08-31T06:01:31;14.20;99.90
22738;DHT22;11536;50.860;4.286;2023-08-31T06:03:57;14.20;99.90
22738;DHT22;11536;50.860;4.286;2023-08-31T06:06:23;14.20;99.90
22738;DHT22;11536;50.860;4.286;2023-08-31T06:08:48;14.20;99.90
22738;DHT22;11536;50.860;4.286;2023-08-31T06:11:14;14.20;99.90
22738;DHT22;11536;50.860;4.286;2023-08-31T06:13:40;14.20;99.90
22738;DHT22;11536;50.860;4.286;2023-08-31T06:16:06;14.20;99.90
22738;DHT22;11536;50.860;4.286;2023-08-31T06:18:32;14.30;99.90
22738;DHT22;11536;50.860;4.286;2023-08-31T06:20:58;14.30;99.90
22738;DHT22;11536;50.860;4.286;2023-08-31T06:23:23;14.30;99.90
22738;DHT22;11536;50.860;4.286;2023-08-31T06:25:49;14.40;99.90
22738;DHT22;11536;50.860;4.286;2023-08-31T06:28:15;14.40;99.90
22738;DHT22;11536;50.860;4.286;2023-08-31T06:30:42;14.40;99.90
22738;DHT22;11536;50.860;4.286;2023-08-31T06:33:29;14.40;99.90
22738;DHT22;11536;50.860;4.286;2023-08-31T06:35:55;14.40;99.90
22738;DHT22;11536;50.860;4.286;2023-08-31T06:38:21;14.40;99.90
22738;DHT22;11536;50.860;4.286;2023-08-31T06:40:47;14.50;99.90
22738;DHT22;11536;50.860;4.286;2023-08-31T06:43:12;14.50;99.90
22738;DHT22;11536;50.860;4.286;2023-08-31T06:45:38;14.60;99.90
22738;DHT22;11536;50.860;4.286;2023-08-31T06:48:04;14.60;99.90
22738;DHT22;11536;50.860;4.286;2023-08-31T06:50:30;14.60;99.90
22738;DHT22;11536;50.860;4.286;2023-08-31T06:52:55;14.60;99.90
22738;DHT22;11536;50.860;4.286;2023-08-31T06:55:21;14.70;99.90
22738;DHT22;11536;50.860;4.286;2023-08-31T06:57:47;14.70;99.90
22738;DHT22;11536;50.860;4.286;2023-08-31T07:00:13;14.70;99.90
22738;DHT22;11536;50.860;4.286;2023-08-31T07:02:42;14.70;99.90
22738;DHT22;11536;50.860;4.286;2023-08-31T07:05:08;14.80;99.90
22738;DHT22;11536;50.860;4.286;2023-08-31T07:07:34;14.90;99.90
22738;DHT22;11536;50.860;4.286;2023-08-31T07:09:59;14.90;99.90
22738;DHT22;11536;50.860;4.286;2023-08-31T07:12:25;14.90;99.90
22738;DHT22;11536;50.860;4.286;2023-08-31T07:14:51;14.90;99.90
22738;DHT22;11536;50.860;4.286;2023-08-31T07:17:19;14.90;99.90
22738;DHT22;11536;50.860;4.286;2023-08-31T07:19:45;15.00;99.90
22738;DHT22;11536;50.860;4.286;2023-08-31T07:22:11;15.00;99.90
22738;DHT22;11536;50.860;4.286;2023-08-31T07:24:37;15.00;99.90
22738;DHT22;11536;50.860;4.286;2023-08-31T07:27:03;15.10;99.90
22738;DHT22;11536;50.860;4.286;2023-08-31T07:29:29;15.10;99.90
22738;DHT22;11536;50.860;4.286;2023-08-31T07:31:55;15.10;99.90
22738;DHT22;11536;50.860;4.286;2023-08-31T07:34:21;15.20;99.90
22738;DHT22;11536;50.860;4.286;2023-08-31T07:36:46;15.20;99.90
22738;DHT22;11536;50.860;4.286;2023-08-31T07:39:12;15.20;99.90
22738;DHT22;11536;50.860;4.286;2023-08-31T07:41:38;15.20;99.90
22738;DHT22;11536;50.860;4.286;2023-08-31T07:44:04;15.30;99.90
22738;DHT22;11536;50.860;4.286;2023-08-31T07:46:30;15.30;99.90
22738;DHT22;11536;50.860;4.286;2023-08-31T07:48:56;15.40;99.90
22738;DHT22;11536;50.860;4.286;2023-08-31T07:51:21;15.40;99.90
22738;DHT22;11536;50.860;4.286;2023-08-31T07:53:49;15.50;99.90
22738;DHT22;11536;50.860;4.286;2023-08-31T07:56:15;15.60;99.90
22738;DHT22;11536;50.860;4.286;2023-08-31T07:58:40;15.60;99.90
22738;DHT22;11536;50.860;4.286;2023-08-31T08:01:06;15.60;99.90
22738;DHT22;11536;50.860;4.286;2023-08-31T08:03:32;15.60;99.90
22738;DHT22;11536;50.860;4.286;2023-08-31T08:05:57;15.70;99.90
22738;DHT22;11536;50.860;4.286;2023-08-31T08:08:23;15.70;99.90
22738;DHT22;11536;50.860;4.286;2023-08-31T08:10:52;15.80;99.90
22738;DHT22;11536;50.860;4.286;2023-08-31T08:13:18;15.80;99.90
22738;DHT22;11536;50.860;4.286;2023-08-31T08:15:45;15.80;99.90
22738;DHT22;11536;50.860;4.286;2023-08-31T08:18:11;15.90;99.90
22738;DHT22;11536;50.860;4.286;2023-08-31T08:20:36;15.90;99.90
22738;DHT22;11536;50.860;4.286;2023-08-31T08:23:02;15.90;99.90
22738;DHT22;11536;50.860;4.286;2023-08-31T08:25:27;16.00;99.90
22738;DHT22;11536;50.860;4.286;2023-08-31T08:27:53;16.00;99.90
22738;DHT22;11536;50.860;4.286;2023-08-31T08:30:19;16.10;99.90
22738;DHT22;11536;50.860;4.286;2023-08-31T08:32:45;16.20;99.90
22738;DHT22;11536;50.860;4.286;2023-08-31T08:35:10;16.20;99.90
22738;DHT22;11536;50.860;4.286;2023-08-31T08:37:36;16.20;99.90
22738;DHT22;11536;50.860;4.286;2023-08-31T08:40:02;16.30;99.90
22738;DHT22;11536;50.860;4.286;2023-08-31T08:42:30;16.30;99.90
22738;DHT22;11536;50.860;4.286;2023-08-31T08:44:59;16.30;99.90
22738;DHT22;11536;50.860;4.286;2023-08-31T08:47:26;16.30;99.90
22738;DHT22;11536;50.860;4.286;2023-08-31T08:49:53;16.40;99.90
22738;DHT22;11536;50.860;4.286;2023-08-31T08:52:22;16.40;99.90
22738;DHT22;11536;50.860;4.286;2023-08-31T08:54:49;16.50;99.90
22738;DHT22;11536;50.860;4.286;2023-08-31T08:57:15;16.50;99.90
22738;DHT22;11536;50.860;4.286;2023-08-31T08:59:40;16.60;99.90
22738;DHT22;11536;50.860;4.286;2023-08-31T09:02:11;16.70;99.90
22738;DHT22;11536;50.860;4.286;2023-08-31T09:04:37;16.70;99.90
22738;DHT22;11536;50.860;4.286;2023-08-31T09:07:03;16.80;99.90
22738;DHT22;11536;50.860;4.286;2023-08-31T09:09:28;16.80;99.90
22738;DHT22;11536;50.860;4.286;2023-08-31T09:11:54;16.80;99.90
22738;DHT22;11536;50.860;4.286;2023-08-31T09:14:23;16.80;99.90
22738;DHT22;11536;50.860;4.286;2023-08-31T09:16:51;16.90;99.90
22738;DHT22;11536;50.860;4.286;2023-08-31T09:19:24;17.00;99.90
22738;DHT22;11536;50.860;4.286;2023-08-31T09:21:56;16.90;99.90
22738;DHT22;11536;50.860;4.286;2023-08-31T09:24:22;17.00;99.90
22738;DHT22;11536;50.860;4.286;2023-08-31T09:26:53;17.10;99.90
22738;DHT22;11536;50.860;4.286;2023-08-31T09:29:19;17.20;99.90
22738;DHT22;11536;50.860;4.286;2023-08-31T09:31:45;17.20;99.90
22738;DHT22;11536;50.860;4.286;2023-08-31T09:34:15;17.30;99.90
22738;DHT22;11536;50.860;4.286;2023-08-31T09:36:41;17.30;99.90
22738;DHT22;11536;50.860;4.286;2023-08-31T09:39:07;17.40;99.90
22738;DHT22;11536;50.860;4.286;2023-08-31T09:41:34;17.40;99.90
22738;DHT22;11536;50.860;4.286;2023-08-31T09:44:17;17.50;99.90
22738;DHT22;11536;50.860;4.286;2023-08-31T09:46:44;17.50;99.90
22738;DHT22;11536;50.860;4.286;2023-08-31T09:49:14;17.60;99.90
22738;DHT22;11536;50.860;4.286;2023-08-31T09:51:44;17.60;99.90
22738;DHT22;11536;50.860;4.286;2023-08-31T09:54:13;17.60;99.90
22738;DHT22;11536;50.860;4.286;2023-08-31T09:56:41;17.70;99.90
22738;DHT22;11536;50.860;4.286;2023-08-31T09:59:08;17.70;99.90
22738;DHT22;11536;50.860;4.286;2023-08-31T10:01:35;17.70;99.90
22738;DHT22;11536;50.860;4.286;2023-08-31T10:04:02;17.80;99.90
22738;DHT22;11536;50.860;4.286;2023-08-31T10:06:29;17.90;99.90
22738;DHT22;11536;50.860;4.286;2023-08-31T10:08:55;17.90;99.90
22738;DHT22;11536;50.860;4.286;2023-08-31T10:11:21;17.90;99.90
22738;DHT22;11536;50.860;4.286;2023-08-31T10:13:49;18.00;99.90
22738;DHT22;11536;50.860;4.286;2023-08-31T10:16:14;18.00;99.90
22738;DHT22;11536;50.860;4.286;2023-08-31T10:18:41;18.10;99.90
22738;DHT22;11536;50.860;4.286;2023-08-31T10:21:07;18.10;99.90
22738;DHT22;11536;50.860;4.286;2023-08-31T10:23:33;18.10;99.90
22738;DHT22;11536;50.860;4.286;2023-08-31T10:26:02;18.10;99.90
22738;DHT22;11536;50.860;4.286;2023-08-31T10:28:29;18.20;99.90
22738;DHT22;11536;50.860;4.286;2023-08-31T10:31:15;18.20;99.90
22738;DHT22;11536;50.860;4.286;2023-08-31T10:33:43;18.20;99.90
22738;DHT22;11536;50.860;4.286;2023-08-31T10:36:16;18.20;99.90
22738;DHT22;11536;50.860;4.286;2023-08-31T10:38:45;18.30;99.90
22738;DHT22;11536;50.860;4.286;2023-08-31T10:43:44;18.30;99.90
22738;DHT22;11536;50.860;4.286;2023-08-31T10:51:39;18.30;99.90
22738;DHT22;11536;50.860;4.286;2023-08-31T10:59:22;18.40;99.90
22738;DHT22;11536;50.860;4.286;2023-08-31T11:01:57;18.40;99.90
22738;DHT22;11536;50.860;4.286;2023-08-31T11:04:25;18.40;99.90
22738;DHT22;11536;50.860;4.286;2023-08-31T11:07:13;18.50;99.90
22738;DHT22;11536;50.860;4.286;2023-08-31T11:09:40;18.50;99.90
22738;DHT22;11536;50.860;4.286;2023-08-31T11:12:06;18.50;99.90
22738;DHT22;11536;50.860;4.286;2023-08-31T11:14:32;18.50;99.90
22738;DHT22;11536;50.860;4.286;2023-08-31T11:16:57;18.50;99.90
22738;DHT22;11536;50.860;4.286;2023-08-31T11:19:24;18.50;99.90
22738;DHT22;11536;50.860;4.286;2023-08-31T11:21:51;18.60;99.90
22738;DHT22;11536;50.860;4.286;2023-08-31T11:24:17;18.70;99.90
22738;DHT22;11536;50.860;4.286;2023-08-31T11:26:43;18.70;99.90
22738;DHT22;11536;50.860;4.286;2023-08-31T11:29:08;18.80;99.90
22738;DHT22;11536;50.860;4.286;2023-08-31T11:31:40;18.80;99.90
22738;DHT22;11536;50.860;4.286;2023-08-31T11:34:06;18.90;99.90
22738;DHT22;11536;50.860;4.286;2023-08-31T11:36:32;18.90;99.90
22738;DHT22;11536;50.860;4.286;2023-08-31T11:38:58;18.90;99.90
22738;DHT22;11536;50.860;4.286;2023-08-31T11:41:24;18.90;99.90
22738;DHT22;11536;50.860;4.286;2023-08-31T11:43:50;18.90;99.90
22738;DHT22;11536;50.860;4.286;2023-08-31T11:46:16;18.90;99.90
22738;DHT22;11536;50.860;4.286;2023-08-31T11:48:43;18.80;99.90
22738;DHT22;11536;50.860;4.286;2023-08-31T11:51:10;18.80;99.90
22738;DHT22;11536;50.860;4.286;2023-08-31T11:53:37;18.70;99.90
22738;DHT22;11536;50.860;4.286;2023-08-31T11:56:03;18.70;99.90
22738;DHT22;11536;50.860;4.286;2023-08-31T11:58:28;18.60;99.90
22738;DHT22;11536;50.860;4.286;2023-08-31T12:00:56;18.60;99.90
22738;DHT22;11536;50.860;4.286;2023-08-31T12:03:22;18.70;99.90
22738;DHT22;11536;50.860;4.286;2023-08-31T12:05:50;18.70;99.90
22738;DHT22;11536;50.860;4.286;2023-08-31T12:08:24;18.80;99.90
22738;DHT22;11536;50.860;4.286;2023-08-31T12:10:50;18.90;99.90
22738;DHT22;11536;50.860;4.286;2023-08-31T12:13:15;18.90;99.90
22738;DHT22;11536;50.860;4.286;2023-08-31T12:15:41;18.90;99.90
22738;DHT22;11536;50.860;4.286;2023-08-31T12:18:11;18.90;99.90
22738;DHT22;11536;50.860;4.286;2023-08-31T12:20:44;18.90;99.90
22738;DHT22;11536;50.860;4.286;2023-08-31T12:23:10;18.90;99.90
22738;DHT22;11536;50.860;4.286;2023-08-31T12:25:36;18.90;99.90
22738;DHT22;11536;50.860;4.286;2023-08-31T12:28:01;18.90;99.90
22738;DHT22;11536;50.860;4.286;2023-08-31T12:30:28;18.90;99.90
22738;DHT22;11536;50.860;4.286;2023-08-31T12:32:53;18.90;99.90
22738;DHT22;11536;50.860;4.286;2023-08-31T12:35:19;18.90;99.90
22738;DHT22;11536;50.860;4.286;2023-08-31T12:37:45;18.90;99.90
22738;DHT22;11536;50.860;4.286;2023-08-31T12:40:11;18.90;99.90
22738;DHT22;11536;50.860;4.286;2023-08-31T12:42:37;18.90;99.90
22738;DHT22;11536;50.860;4.286;2023-08-31T12:45:02;18.90;99.90
22738;DHT22;11536;50.860;4.286;2023-08-31T12:47:31;18.90;99.90
22738;DHT22;11536;50.860;4.286;2023-08-31T12:49:56;18.90;99.90
22738;DHT22;11536;50.860;4.286;2023-08-31T12:52:23;18.90;99.90
22738;DHT22;11536;50.860;4.286;2023-08-31T12:54:49;18.90;99.90
22738;DHT22;11536;50.860;4.286;2023-08-31T12:57:15;18.90;99.90
22738;DHT22;11536;50.860;4.286;2023-08-31T12:59:40;18.90;99.90
22738;DHT22;11536;50.860;4.286;2023-08-31T13:02:07;19.00;99.90
22738;DHT22;11536;50.860;4.286;2023-08-31T13:04:36;19.00;99.90
22738;DHT22;11536;50.860;4.286;2023-08-31T13:07:01;19.00;99.90
22738;DHT22;11536;50.860;4.286;2023-08-31T13:09:27;19.00;99.90
22738;DHT22;11536;50.860;4.286;2023-08-31T13:11:53;19.00;99.90
22738;DHT22;11536;50.860;4.286;2023-08-31T13:14:19;19.00;99.90
22738;DHT22;11536;50.860;4.286;2023-08-31T13:16:44;19.00;99.90
22738;DHT22;11536;50.860;4.286;2023-08-31T13:19:10;19.00;99.90
22738;DHT22;11536;50.860;4.286;2023-08-31T13:21:35;19.00;99.90
22738;DHT22;11536;50.860;4.286;2023-08-31T13:24:01;19.00;99.90
22738;DHT22;11536;50.860;4.286;2023-08-31T13:26:27;19.00;99.90
22738;DHT22;11536;50.860;4.286;2023-08-31T13:28:52;19.00;99.90
22738;DHT22;11536;50.860;4.286;2023-08-31T13:31:18;19.00;99.90
22738;DHT22;11536;50.860;4.286;2023-08-31T13:33:44;19.10;99.90
22738;DHT22;11536;50.860;4.286;2023-08-31T13:36:09;19.20;99.90
22738;DHT22;11536;50.860;4.286;2023-08-31T13:38:35;19.20;99.90
22738;DHT22;11536;50.860;4.286;2023-08-31T13:41:00;19.30;99.90
22738;DHT22;11536;50.860;4.286;2023-08-31T13:43:26;19.40;99.90
22738;DHT22;11536;50.860;4.286;2023-08-31T13:45:52;19.40;99.90
22738;DHT22;11536;50.860;4.286;2023-08-31T13:48:18;19.40;99.90
22738;DHT22;11536;50.860;4.286;2023-08-31T13:50:46;19.50;99.90
22738;DHT22;11536;50.860;4.286;2023-08-31T13:53:11;19.50;99.90
22738;DHT22;11536;50.860;4.286;2023-08-31T13:55:37;19.40;99.90
22738;DHT22;11536;50.860;4.286;2023-08-31T13:58:07;19.40;99.90
22738;DHT22;11536;50.860;4.286;2023-08-31T14:00:36;19.40;99.90
22738;DHT22;11536;50.860;4.286;2023-08-31T14:03:01;19.40;99.90
22738;DHT22;11536;50.860;4.286;2023-08-31T14:05:30;19.30;99.90
22738;DHT22;11536;50.860;4.286;2023-08-31T14:07:57;19.30;99.90
22738;DHT22;11536;50.860;4.286;2023-08-31T14:10:24;19.30;99.90
22738;DHT22;11536;50.860;4.286;2023-08-31T14:12:49;19.30;99.90
22738;DHT22;11536;50.860;4.286;2023-08-31T14:15:15;19.30;99.90
22738;DHT22;11536;50.860;4.286;2023-08-31T14:17:41;19.30;99.90
22738;DHT22;11536;50.860;4.286;2023-08-31T14:20:07;19.30;99.90
22738;DHT22;11536;50.860;4.286;2023-08-31T14:22:37;19.30;99.90
22738;DHT22;11536;50.860;4.286;2023-08-31T14:25:03;19.40;99.90
22738;DHT22;11536;50.860;4.286;2023-08-31T14:27:29;19.40;99.90
22738;DHT22;11536;50.860;4.286;2023-08-31T14:29:56;19.40;99.90
22738;DHT22;11536;50.860;4.286;2023-08-31T14:32:23;19.40;99.90
22738;DHT22;11536;50.860;4.286;2023-08-31T14:34:48;19.40;99.90
22738;DHT22;11536;50.860;4.286;2023-08-31T14:37:14;19.40;99.90
22738;DHT22;11536;50.860;4.286;2023-08-31T14:39:40;19.40;99.90
22738;DHT22;11536;50.860;4.286;2023-08-31T14:42:06;19.40;99.90
22738;DHT22;11536;50.860;4.286;2023-08-31T14:44:32;19.40;99.90
22738;DHT22;11536;50.860;4.286;2023-08-31T14:46:57;19.30;99.90
22738;DHT22;11536;50.860;4.286;2023-08-31T14:49:23;19.30;99.90
22738;DHT22;11536;50.860;4.286;2023-08-31T14:51:50;19.30;99.90
22738;DHT22;11536;50.860;4.286;2023-08-31T14:54:16;19.40;99.90
22738;DHT22;11536;50.860;4.286;2023-08-31T14:56:42;19.40;99.90
22738;DHT22;11536;50.860;4.286;2023-08-31T14:59:07;19.40;99.90
22738;DHT22;11536;50.860;4.286;2023-08-31T15:01:33;19.40;99.90
22738;DHT22;11536;50.860;4.286;2023-08-31T15:03:58;19.40;99.90
22738;DHT22;11536;50.860;4.286;2023-08-31T15:06:24;19.40;99.90
22738;DHT22;11536;50.860;4.286;2023-08-31T15:08:50;19.40;99.90
22738;DHT22;11536;50.860;4.286;2023-08-31T15:11:15;19.40;99.90
22738;DHT22;11536;50.860;4.286;2023-08-31T15:13:41;19.40;99.90
22738;DHT22;11536;50.860;4.286;2023-08-31T15:16:07;19.40;99.90
22738;DHT22;11536;50.860;4.286;2023-08-31T15:18:33;19.40;99.90
22738;DHT22;11536;50.860;4.286;2023-08-31T15:20:58;19.30;99.90
22738;DHT22;11536;50.860;4.286;2023-08-31T15:23:24;19.30;99.90
22738;DHT22;11536;50.860;4.286;2023-08-31T15:25:49;19.30;99.90
22738;DHT22;11536;50.860;4.286;2023-08-31T15:28:15;19.30;99.90
22738;DHT22;11536;50.860;4.286;2023-08-31T15:30:41;19.30;99.90
22738;DHT22;11536;50.860;4.286;2023-08-31T15:33:07;19.20;99.90
22738;DHT22;11536;50.860;4.286;2023-08-31T15:35:32;19.20;99.90
22738;DHT22;11536;50.860;4.286;2023-08-31T15:37:59;19.20;99.90
22738;DHT22;11536;50.860;4.286;2023-08-31T15:40:25;19.20;99.90